Terminal Aerodrome Forecast
Issued by NWS

Home | Current Version | Previous Version | Text Only | Print | Product List | Glossary Off
Versions: 1 2 3 4 5 6 7 8 9 10 11 12 13 14 15 16 17 18

000
FTUS43 KBIS 251700
TAFDIK
TAF
KDIK 251738Z 2518/2618 30017KT P6SM BKN025 OVC040
     FM252100 31014KT P6SM SCT025 BKN040
     FM260100 31006KT P6SM SCT040
     FM260800 19005KT P6SM SCT100
     FM261300 16007KT P6SM SCT040 BKN120=

USA.gov is the U.S. government's official web portal to all federal, state and local government web resources and services.